Time;durP1;ratioP1;P1;durP2;ratioP2;P2;SDS_P1;SDS_P2;PMS_P1;PMS_P2;Temp;Humidity;BMP_temperature;BMP_pressure;BME280_temperature;BME280_humidity;BME280_pressure;Samples;Min_cycle;Max_cycle;Signal;HPM_P1;HPM_P2
2021/10/04 00:00:53;;;;;;;4.43;2.38;;;;;;;11.10;100.00;100704.38;4942798;28;20137;-84
2021/10/04 00:03:18;;;;;;;3.33;2.00;;;;;;;11.10;100.00;100709.72;4939301;28;20061;-82
2021/10/04 00:05:44;;;;;;;5.18;2.10;;;;;;;11.10;100.00;100716.97;4932330;28;20730;-82
2021/10/04 00:08:09;;;;;;;4.72;2.53;;;;;;;11.14;100.00;100707.56;4936455;28;20122;-82
2021/10/04 00:10:35;;;;;;;3.58;2.20;;;;;;;11.12;100.00;100709.56;4936326;28;20510;-84
2021/10/04 00:13:00;;;;;;;3.08;1.80;;;;;;;11.15;100.00;100714.59;4939478;28;20055;-83
2021/10/04 00:15:29;;;;;;;3.15;2.35;;;;;;;11.14;100.00;100712.94;4937244;28;20070;-81
2021/10/04 00:17:54;;;;;;;5.20;2.70;;;;;;;11.10;100.00;100717.78;4935481;28;20155;-81
2021/10/04 00:20:20;;;;;;;3.92;2.25;;;;;;;11.14;100.00;100713.78;4927552;29;20047;-81
2021/10/04 00:22:46;;;;;;;5.03;2.15;;;;;;;11.14;100.00;100726.38;4936543;28;20047;-84
2021/10/04 00:25:12;;;;;;;4.07;1.95;;;;;;;11.10;100.00;100728.53;4949626;28;20046;-85
2021/10/04 00:27:37;;;;;;;3.33;1.92;;;;;;;11.13;100.00;100728.19;4944298;28;20417;-82
2021/10/04 00:30:06;;;;;;;3.20;1.98;;;;;;;11.15;100.00;100726.19;4946515;28;20044;-82
2021/10/04 00:32:39;;;;;;;4.32;1.95;;;;;;;11.11;100.00;100751.72;4947598;28;20110;-82
2021/10/04 00:35:05;;;;;;;6.88;2.10;;;;;;;11.12;100.00;100758.75;4944678;28;20052;-81
2021/10/04 00:37:32;;;;;;;4.15;2.00;;;;;;;11.14;100.00;100761.28;4934974;28;20048;-82
2021/10/04 00:39:57;;;;;;;4.97;2.28;;;;;;;11.15;100.00;100762.94;4939944;28;20593;-82
2021/10/04 00:42:24;;;;;;;3.17;1.92;;;;;;;11.14;100.00;100759.44;4938539;28;20047;-81
2021/10/04 00:44:51;;;;;;;4.63;1.88;;;;;;;11.13;100.00;100754.22;4939218;28;20142;-82
2021/10/04 00:47:17;;;;;;;4.80;2.10;;;;;;;11.13;100.00;100759.59;4945452;28;20402;-83
2021/10/04 00:49:43;;;;;;;4.00;1.90;;;;;;;11.14;100.00;100755.91;4936475;28;20077;-82
2021/10/04 00:52:09;;;;;;;4.75;1.85;;;;;;;11.10;100.00;100766.13;4931461;28;20657;-82
2021/10/04 00:54:35;;;;;;;4.05;2.00;;;;;;;11.12;100.00;100768.66;4944022;28;20047;-81
2021/10/04 00:57:00;;;;;;;5.28;1.95;;;;;;;11.10;100.00;100773.34;4943745;28;20118;-82
2021/10/04 00:59:26;;;;;;;4.32;2.10;;;;;;;11.10;100.00;100768.81;4935795;28;20051;-84
2021/10/04 01:01:52;;;;;;;3.72;2.22;;;;;;;11.13;100.00;100770.34;4933876;28;20625;-82
2021/10/04 01:04:17;;;;;;;5.72;2.15;;;;;;;11.11;100.00;100777.75;4938602;28;20431;-81
2021/10/04 01:06:42;;;;;;;3.65;2.00;;;;;;;11.09;100.00;100775.22;4935862;28;20051;-82
2021/10/04 01:09:08;;;;;;;3.63;1.70;;;;;;;11.10;100.00;100784.09;4935683;28;20075;-81
2021/10/04 01:11:33;;;;;;;4.07;2.03;;;;;;;11.09;100.00;100783.25;4950362;28;20046;-85
2021/10/04 01:13:59;;;;;;;4.47;1.90;;;;;;;11.11;100.00;100767.84;4951011;28;20093;-82
2021/10/04 01:16:24;;;;;;;2.95;1.92;;;;;;;11.11;100.00;100770.50;4954818;28;20130;-81
2021/10/04 01:18:49;;;;;;;4.32;2.25;;;;;;;11.14;100.00;100777.41;4942402;28;20048;-81
2021/10/04 01:21:15;;;;;;;4.60;1.70;;;;;;;11.15;100.00;100779.91;4946771;28;20044;-82
2021/10/04 01:23:41;;;;;;;2.88;1.63;;;;;;;11.14;100.00;100782.78;4942401;28;20490;-81
2021/10/04 01:26:06;;;;;;;5.68;1.83;;;;;;;11.16;100.00;100788.78;4940338;28;20055;-82
2021/10/04 01:28:32;;;;;;;3.17;1.80;;;;;;;11.15;100.00;100781.75;4949537;28;20374;-82
2021/10/04 01:30:57;;;;;;;3.80;1.92;;;;;;;11.18;100.00;100806.41;4959197;28;20073;-82
2021/10/04 01:33:23;;;;;;;3.95;1.75;;;;;;;11.16;100.00;100808.44;4960049;28;20498;-82
2021/10/04 01:35:48;;;;;;;5.03;1.65;;;;;;;11.17;100.00;100810.13;4956889;28;20410;-82
2021/10/04 01:38:14;;;;;;;3.30;1.95;;;;;;;11.19;100.00;100801.88;4955176;28;20102;-81
2021/10/04 01:40:43;;;;;;;3.80;1.48;;;;;;;11.16;100.00;100804.91;4941513;28;20130;-82
2021/10/04 01:43:12;;;;;;;4.18;1.25;;;;;;;11.18;100.00;100795.69;4947435;28;20043;-82
2021/10/04 01:45:38;;;;;;;3.22;1.52;;;;;;;11.18;100.00;100794.84;4940739;28;20071;-81
2021/10/04 01:48:03;;;;;;;3.22;1.50;;;;;;;11.16;100.00;100794.16;4957291;28;20137;-82
2021/10/04 01:50:32;;;;;;;5.82;1.60;;;;;;;11.13;100.00;100798.03;4959279;28;20071;-82
2021/10/04 01:52:58;;;;;;;3.85;1.40;;;;;;;11.10;100.00;100794.84;4944162;28;20134;-82
2021/10/04 01:55:23;;;;;;;3.72;1.50;;;;;;;11.12;100.00;100790.97;4956563;28;20143;-81
2021/10/04 01:57:50;;;;;;;3.55;1.48;;;;;;;11.12;100.00;100795.53;4958093;28;20042;-82
2021/10/04 02:00:18;;;;;;;4.03;1.38;;;;;;;11.07;100.00;100791.47;4958756;28;20042;-84
2021/10/04 02:02:46;;;;;;;3.23;1.50;;;;;;;11.09;100.00;100785.13;4957041;28;20042;-82
2021/10/04 02:05:12;;;;;;;5.32;1.58;;;;;;;11.05;100.00;100782.75;4956509;28;20043;-81
2021/10/04 02:07:37;;;;;;;3.75;1.67;;;;;;;11.06;100.00;100787.13;4956479;28;20494;-83
2021/10/04 02:10:16;;;;;;;4.03;1.38;;;;;;;11.02;100.00;100791.16;4959457;28;20539;-81
2021/10/04 02:12:42;;;;;;;2.70;1.60;;;;;;;11.01;100.00;100805.56;4956441;28;20497;-83
2021/10/04 02:15:09;;;;;;;3.33;1.70;;;;;;;11.01;100.00;100805.56;4956069;28;20102;-83
2021/10/04 02:17:34;;;;;;;5.78;2.53;;;;;;;10.98;100.00;100795.16;4955696;28;20588;-81
2021/10/04 02:20:01;;;;;;;6.07;1.67;;;;;;;10.95;100.00;100800.88;4959151;28;20050;-81
2021/10/04 02:22:26;;;;;;;4.75;1.52;;;;;;;10.95;100.00;100802.72;4939203;28;20047;-83
2021/10/04 02:24:52;;;;;;;4.13;2.80;;;;;;;10.95;100.00;100800.03;4944219;28;20553;-84
2021/10/04 02:27:17;;;;;;;5.97;3.50;;;;;;;10.93;100.00;100796.66;4943954;28;20054;-81
2021/10/04 02:29:43;;;;;;;6.00;2.20;;;;;;;10.94;100.00;100788.47;4956231;28;20138;-82
2021/10/04 02:32:08;;;;;;;5.30;2.72;;;;;;;10.91;100.00;100794.16;4955245;28;20074;-82
2021/10/04 02:34:35;;;;;;;4.60;2.75;;;;;;;10.94;100.00;100793.84;4959114;28;20070;-85
2021/10/04 02:37:00;;;;;;;4.50;2.22;;;;;;;10.92;100.00;100795.84;4961523;28;20110;-83
2021/10/04 02:39:26;;;;;;;4.38;1.60;;;;;;;10.94;100.00;100799.19;4955911;28;20222;-82
2021/10/04 02:41:51;;;;;;;3.55;1.90;;;;;;;10.95;100.00;100795.50;4957350;28;20376;-83
2021/10/04 02:44:17;;;;;;;5.90;2.53;;;;;;;10.94;100.00;100796.53;4959231;28;20067;-82
2021/10/04 02:46:43;;;;;;;5.10;2.05;;;;;;;10.91;100.00;100799.53;4938957;28;20406;-83
2021/10/04 02:49:08;;;;;;;4.25;1.90;;;;;;;10.93;100.00;100807.41;4950323;28;20043;-85
2021/10/04 02:51:34;;;;;;;3.10;1.60;;;;;;;10.91;100.00;100828.25;4964519;28;20833;-82
2021/10/04 02:53:59;;;;;;;5.38;1.95;;;;;;;10.92;100.00;100806.56;4960436;28;20105;-83
2021/10/04 02:56:25;;;;;;;3.30;1.70;;;;;;;10.88;100.00;100818.66;4959269;28;20047;-83
2021/10/04 02:58:50;;;;;;;5.68;1.90;;;;;;;10.89;100.00;100814.13;4947442;28;20608;-83
2021/10/04 03:01:16;;;;;;;6.32;1.83;;;;;;;10.88;100.00;100821.34;4949143;28;20432;-82
2021/10/04 03:03:41;;;;;;;3.85;1.55;;;;;;;10.82;100.00;100819.34;4959107;28;20061;-82
2021/10/04 03:06:07;;;;;;;2.58;1.60;;;;;;;10.80;100.00;100815.97;4961847;28;20051;-85
2021/10/04 03:08:33;;;;;;;6.03;1.88;;;;;;;10.78;100.00;100800.00;4947771;28;20047;-82
2021/10/04 03:10:58;;;;;;;5.95;2.10;;;;;;;10.77;100.00;100811.75;4941746;28;20499;-84
2021/10/04 03:13:24;;;;;;;3.72;1.92;;;;;;;10.78;100.00;100823.34;4951053;28;20133;-82
2021/10/04 03:15:49;;;;;;;4.32;1.63;;;;;;;10.76;100.00;100822.66;4970973;28;20050;-82
2021/10/04 03:18:14;;;;;;;5.60;2.40;;;;;;;10.75;100.00;100826.34;4970084;28;20137;-82
2021/10/04 03:20:40;;;;;;;5.32;1.90;;;;;;;10.74;100.00;100835.41;4959490;28;20047;-82
2021/10/04 03:23:06;;;;;;;4.70;2.67;;;;;;;10.73;100.00;100833.72;4957629;28;20465;-83
2021/10/04 03:25:31;;;;;;;3.63;1.92;;;;;;;10.71;100.00;100827.69;4968225;28;20066;-83
2021/10/04 03:27:57;;;;;;;4.00;2.33;;;;;;;10.69;100.00;100835.91;4965601;28;20065;-82
2021/10/04 03:30:22;;;;;;;3.97;2.05;;;;;;;10.63;100.00;100841.91;4947150;28;20059;-83
2021/10/04 03:32:48;;;;;;;4.25;2.42;;;;;;;10.66;100.00;100835.38;4949263;28;20051;-82
2021/10/04 03:35:14;;;;;;;6.53;2.20;;;;;;;10.66;100.00;100832.72;4945453;28;20513;-82
2021/10/04 03:37:41;;;;;;;5.50;2.13;;;;;;;10.60;100.00;100842.25;4934854;28;20079;-86
2021/10/04 03:40:07;;;;;;;6.38;2.33;;;;;;;10.61;100.00;100846.59;4937845;28;20043;-82
2021/10/04 03:42:33;;;;;;;4.65;2.05;;;;;;;10.62;100.00;100848.31;4939744;28;20114;-83
2021/10/04 03:44:58;;;;;;;3.88;2.38;;;;;;;10.62;100.00;100848.31;4939367;28;20059;-85
2021/10/04 03:47:24;;;;;;;3.20;1.85;;;;;;;10.59;100.00;100868.25;4936293;28;20051;-84
2021/10/04 03:49:49;;;;;;;5.72;2.35;;;;;;;10.55;100.00;100869.56;4940292;28;20043;-85
2021/10/04 03:52:15;;;;;;;4.03;1.95;;;;;;;10.55;100.00;100869.56;4949710;28;20047;-83
2021/10/04 03:54:40;;;;;;;4.03;1.95;;;;;;;10.55;100.00;100891.03;4959003;28;20047;-83
2021/10/04 03:57:05;;;;;;;5.75;2.08;;;;;;;10.56;100.00;100891.88;4957653;28;20047;-83
2021/10/04 03:59:31;;;;;;;3.90;2.05;;;;;;;10.53;100.00;100890.38;4957111;28;20078;-82
2021/10/04 04:01:56;;;;;;;4.05;2.20;;;;;;;10.54;100.00;100894.72;4946930;28;20135;-82
2021/10/04 04:04:22;;;;;;;3.90;2.55;;;;;;;10.57;100.00;100886.34;4939269;28;20086;-84
2021/10/04 04:06:47;;;;;;;4.65;2.40;;;;;;;10.51;100.00;100881.63;4940423;28;20043;-82
2021/10/04 04:09:12;;;;;;;7.20;3.00;;;;;;;10.53;100.00;100893.06;4940370;28;20055;-83
2021/10/04 04:11:38;;;;;;;5.93;3.30;;;;;;;10.53;100.00;100887.69;4936316;28;20043;-82
2021/10/04 04:14:04;;;;;;;6.95;3.38;;;;;;;10.51;100.00;100895.03;4945581;28;20051;-85
2021/10/04 04:16:29;;;;;;;6.85;3.58;;;;;;;10.50;100.00;100903.25;4931862;28;20059;-82
2021/10/04 04:18:54;;;;;;;7.40;3.60;;;;;;;10.50;100.00;100909.47;4937188;28;20162;-84
2021/10/04 04:21:20;;;;;;;6.35;4.20;;;;;;;10.47;100.00;100916.97;4929562;28;20059;-81
2021/10/04 04:23:45;;;;;;;9.02;4.70;;;;;;;10.45;100.00;100911.78;4938158;28;20506;-82
2021/10/04 04:26:11;;;;;;;7.00;4.15;;;;;;;10.47;100.00;100911.63;4943325;28;20038;-85
2021/10/04 04:28:37;;;;;;;8.73;4.68;;;;;;;10.49;100.00;100906.94;4947447;28;20514;-82
2021/10/04 04:31:02;;;;;;;11.35;4.72;;;;;;;10.45;100.00;100911.78;4939855;28;20202;-82
2021/10/04 04:33:28;;;;;;;10.40;4.72;;;;;;;10.47;100.00;100909.78;4936968;28;20047;-83
2021/10/04 04:35:53;;;;;;;9.23;4.80;;;;;;;10.51;100.00;100918.34;4936520;28;20075;-82
2021/10/04 04:38:18;;;;;;;13.50;5.18;;;;;;;10.52;100.00;100909.28;4931121;28;20056;-83
2021/10/04 04:40:45;;;;;;;8.60;4.63;;;;;;;10.53;100.00;100919.88;4935556;28;20456;-85
2021/10/04 04:43:11;;;;;;;11.05;4.70;;;;;;;10.53;100.00;100908.28;4936627;28;20243;-83
2021/10/04 04:45:37;;;;;;;7.07;4.10;;;;;;;10.54;100.00;100921.56;4943731;28;20138;-82
2021/10/04 04:48:02;;;;;;;10.90;4.53;;;;;;;10.53;100.00;100914.53;4942583;28;20051;-82
2021/10/04 04:50:28;;;;;;;11.63;5.13;;;;;;;10.59;100.00;100913.03;4938419;28;21423;-82
2021/10/04 04:52:54;;;;;;;8.48;4.60;;;;;;;10.58;100.00;100914.84;4933319;28;20113;-82
2021/10/04 04:55:20;;;;;;;8.57;4.70;;;;;;;10.60;100.00;100912.03;4933445;28;20043;-83
2021/10/04 04:57:45;;;;;;;8.63;3.78;;;;;;;10.64;100.00;100899.94;4937695;28;20051;-85
2021/10/04 05:00:13;;;;;;;7.68;4.38;;;;;;;10.65;100.00;100916.91;4934481;28;20528;-82
2021/10/04 05:02:40;;;;;;;7.70;4.22;;;;;;;10.67;100.00;100904.16;4931550;28;20067;-83
2021/10/04 05:05:07;;;;;;;7.80;4.13;;;;;;;10.67;100.00;100910.34;4937804;28;20110;-84
2021/10/04 05:07:33;;;;;;;12.52;5.00;;;;;;;10.68;100.00;100913.91;4942974;28;20146;-82
2021/10/04 05:09:58;;;;;;;12.00;4.85;;;;;;;10.69;100.00;100904.84;4937725;28;20146;-82
2021/10/04 05:12:24;;;;;;;11.07;4.20;;;;;;;10.69;100.00;100905.69;4951215;28;20060;-82
2021/10/04 05:14:49;;;;;;;10.73;4.30;;;;;;;10.71;100.00;100910.91;4922068;29;20052;-82
2021/10/04 05:17:15;;;;;;;7.43;3.88;;;;;;;10.69;100.00;100903.00;4924843;28;20138;-82
2021/10/04 05:19:40;;;;;;;9.63;4.63;;;;;;;10.72;100.00;100915.25;4929682;29;20055;-81
2021/10/04 05:22:06;;;;;;;10.57;4.10;;;;;;;10.73;100.00;100914.22;4927544;29;20047;-82
2021/10/04 05:24:31;;;;;;;6.80;4.00;;;;;;;10.72;100.00;100917.94;4927081;29;20062;-82
2021/10/04 05:26:57;;;;;;;8.48;3.92;;;;;;;10.68;100.00;100921.97;4926064;28;20051;-82
2021/10/04 05:29:25;;;;;;;9.25;4.10;;;;;;;10.71;100.00;100922.47;4925568;29;20632;-82
2021/10/04 05:31:52;;;;;;;8.18;4.10;;;;;;;10.68;100.00;100928.16;4927011;29;20048;-82
2021/10/04 05:34:17;;;;;;;8.20;4.55;;;;;;;10.71;100.00;100932.38;4925410;29;20498;-82
2021/10/04 05:36:43;;;;;;;8.43;4.45;;;;;;;10.72;100.00;100937.56;4924469;29;20035;-83
2021/10/04 05:39:08;;;;;;;9.90;4.25;;;;;;;10.77;100.00;100942.44;4924266;29;20108;-82
2021/10/04 05:41:34;;;;;;;8.40;4.35;;;;;;;10.74;100.00;100942.78;4927581;29;20053;-82
2021/10/04 05:43:59;;;;;;;9.75;4.82;;;;;;;10.75;100.00;100950.66;4941024;28;20509;-84
2021/10/04 05:46:25;;;;;;;8.95;4.53;;;;;;;10.78;100.00;100952.19;4944752;28;20044;-82
2021/10/04 05:48:50;;;;;;;8.13;4.13;;;;;;;10.78;100.00;100944.97;4944231;28;20054;-82
2021/10/04 05:51:16;;;;;;;9.90;3.88;;;;;;;10.72;100.00;100944.78;4942763;28;20047;-83
2021/10/04 05:53:41;;;;;;;11.98;4.13;;;;;;;10.73;100.00;100947.31;4945109;28;20051;-83
2021/10/04 05:56:07;;;;;;;8.95;4.20;;;;;;;10.76;100.00;100952.34;4943609;28;20110;-82
2021/10/04 05:58:32;;;;;;;8.65;4.13;;;;;;;10.79;100.00;100952.03;4945476;28;20054;-82
2021/10/04 06:00:58;;;;;;;7.80;3.88;;;;;;;10.81;100.00;100965.28;4943876;28;20058;-83
2021/10/04 06:03:23;;;;;;;10.10;4.00;;;;;;;10.81;100.00;100973.31;4943914;28;20058;-82
2021/10/04 06:05:49;;;;;;;6.60;3.67;;;;;;;10.80;100.00;100964.44;4946574;28;20145;-82
2021/10/04 06:08:14;;;;;;;8.05;3.85;;;;;;;10.84;100.00;100967.63;4945796;28;20047;-82
2021/10/04 06:10:40;;;;;;;9.18;4.13;;;;;;;10.87;100.00;100982.59;4923236;29;20039;-84
2021/10/04 06:13:05;;;;;;;11.30;3.95;;;;;;;10.86;100.00;100983.59;4923884;28;20110;-82
2021/10/04 06:15:31;;;;;;;9.23;3.58;;;;;;;10.89;100.00;100976.06;4925763;28;20494;-83
2021/10/04 06:17:56;;;;;;;9.15;3.63;;;;;;;10.91;100.00;100992.00;4925572;28;20570;-83
2021/10/04 06:20:22;;;;;;;7.07;3.40;;;;;;;10.92;100.00;100994.53;4939097;28;20102;-82
2021/10/04 06:22:48;;;;;;;5.93;3.15;;;;;;;10.92;100.00;100999.88;4935696;28;20058;-82
2021/10/04 06:25:15;;;;;;;7.85;3.63;;;;;;;10.93;100.00;100995.34;4937181;28;20134;-82
2021/10/04 06:27:42;;;;;;;5.78;3.53;;;;;;;10.98;100.00;101003.78;4938895;28;20062;-83
2021/10/04 06:30:08;;;;;;;7.30;3.50;;;;;;;10.97;100.00;101000.25;4934384;28;20074;-82
2021/10/04 06:32:35;;;;;;;6.68;3.25;;;;;;;10.98;100.00;101009.16;4933037;28;20059;-83
2021/10/04 06:35:01;;;;;;;8.23;3.25;;;;;;;11.04;100.00;101022.75;4934942;28;20517;-83
2021/10/04 06:37:26;;;;;;;8.65;3.78;;;;;;;11.05;100.00;101020.94;4944730;28;20086;-82
2021/10/04 06:39:51;;;;;;;7.68;2.88;;;;;;;11.06;100.00;101038.72;4935636;28;20128;-85
2021/10/04 06:42:17;;;;;;;7.40;2.95;;;;;;;11.08;100.00;101042.09;4934816;28;20047;-82
2021/10/04 06:44:42;;;;;;;5.82;2.72;;;;;;;11.12;100.00;101046.13;4931770;28;20080;-83
2021/10/04 06:47:08;;;;;;;5.63;2.83;;;;;;;11.15;100.00;101043.13;4933194;28;20044;-82
2021/10/04 06:49:34;;;;;;;5.80;2.70;;;;;;;11.19;100.00;101035.56;4936502;28;20394;-82
2021/10/04 06:52:01;;;;;;;6.68;3.17;;;;;;;11.23;100.00;101034.25;4943577;28;20043;-83
2021/10/04 06:54:26;;;;;;;5.47;2.92;;;;;;;11.25;100.00;101049.22;4943044;28;20494;-82
2021/10/04 06:56:51;;;;;;;5.93;2.88;;;;;;;11.28;100.00;101050.75;4943412;28;20074;-83
2021/10/04 06:59:17;;;;;;;4.28;2.47;;;;;;;11.30;100.00;101062.13;4943153;28;20050;-82
2021/10/04 07:01:43;;;;;;;7.03;2.60;;;;;;;11.36;100.00;101088.34;4938837;28;20055;-82
2021/10/04 07:04:08;;;;;;;9.60;2.72;;;;;;;11.38;100.00;101091.72;4935970;28;20138;-85
2021/10/04 07:06:34;;;;;;;6.05;2.78;;;;;;;11.40;100.00;101078.16;4917210;28;20118;-81
2021/10/04 07:08:59;;;;;;;10.55;2.55;;;;;;;11.41;100.00;101085.19;4932484;28;20075;-82
2021/10/04 07:11:25;;;;;;;6.05;3.10;;;;;;;11.43;100.00;101084.03;4934183;28;20414;-82
2021/10/04 07:13:50;;;;;;;4.35;2.53;;;;;;;11.44;100.00;101071.44;4938309;28;20047;-82
2021/10/04 07:16:16;;;;;;;5.82;2.90;;;;;;;11.45;100.00;101065.91;4933591;28;20129;-82
2021/10/04 07:18:41;;;;;;;7.88;2.58;;;;;;;11.50;100.00;101068.91;4936228;28;20047;-83
2021/10/04 07:21:09;;;;;;;6.10;2.42;;;;;;;11.52;100.00;101064.22;4935710;28;20239;-82
2021/10/04 07:23:34;;;;;;;7.10;2.30;;;;;;;11.56;100.00;101064.75;4947059;28;20113;-83
2021/10/04 07:26:00;;;;;;;6.13;2.58;;;;;;;11.58;100.00;101059.22;4944284;28;20051;-82
2021/10/04 07:28:25;;;;;;;5.22;2.53;;;;;;;11.62;100.00;101069.44;4943389;28;20050;-82
2021/10/04 07:30:51;;;;;;;8.52;2.70;;;;;;;11.63;100.00;101075.69;4936313;28;20054;-84
2021/10/04 07:33:17;;;;;;;4.45;2.30;;;;;;;11.67;100.00;101074.34;4936292;28;20626;-82
2021/10/04 07:35:42;;;;;;;5.38;2.67;;;;;;;11.67;100.00;101071.66;4937225;28;20118;-84
2021/10/04 07:38:08;;;;;;;6.18;2.58;;;;;;;11.70;100.00;101079.41;4938415;28;20114;-83
2021/10/04 07:40:33;;;;;;;6.18;2.50;;;;;;;11.71;100.00;101081.94;4932776;28;20478;-83
2021/10/04 07:42:59;;;;;;;5.93;2.35;;;;;;;11.72;100.00;101090.84;4933521;28;20059;-84
2021/10/04 07:45:25;;;;;;;8.13;2.63;;;;;;;11.73;100.00;101085.28;4934158;28;20055;-83
2021/10/04 07:47:51;;;;;;;8.70;2.65;;;;;;;11.75;100.00;101080.59;4939650;28;20058;-83
2021/10/04 07:50:17;;;;;;;8.35;2.67;;;;;;;11.76;100.00;101076.03;4934012;28;20060;-83
2021/10/04 07:52:43;;;;;;;6.90;2.90;;;;;;;11.79;100.00;101078.41;4939787;28;20134;-82
2021/10/04 07:55:10;;;;;;;4.97;2.33;;;;;;;11.78;100.00;101076.72;4939104;28;20051;-84
2021/10/04 07:57:35;;;;;;;7.50;2.55;;;;;;;11.83;100.00;101078.94;4938763;28;20074;-82
2021/10/04 08:00:03;;;;;;;7.28;2.72;;;;;;;11.87;100.00;101080.31;4941594;28;20470;-82
2021/10/04 08:02:29;;;;;;;6.63;2.83;;;;;;;11.86;100.00;101081.31;4938143;28;20549;-84
2021/10/04 08:04:55;;;;;;;7.97;2.60;;;;;;;11.91;100.00;101082.50;4939914;28;20117;-83
2021/10/04 08:07:20;;;;;;;5.75;2.47;;;;;;;11.92;100.00;101078.81;4932211;28;20051;-81
2021/10/04 08:09:45;;;;;;;4.80;2.25;;;;;;;11.89;100.00;101081.81;4942911;28;20043;-82
2021/10/04 08:12:11;;;;;;;7.10;3.05;;;;;;;11.92;100.00;101092.25;4940698;28;20048;-83
2021/10/04 08:14:37;;;;;;;5.57;2.47;;;;;;;11.97;100.00;101094.44;4939239;28;20575;-82
2021/10/04 08:17:03;;;;;;;7.05;2.90;;;;;;;11.98;100.00;101090.75;4941140;28;20067;-82
2021/10/04 08:19:29;;;;;;;9.90;2.55;;;;;;;12.02;100.00;101089.41;4934283;28;20556;-82
2021/10/04 08:21:54;;;;;;;5.55;2.50;;;;;;;12.02;100.00;101089.41;4933971;28;20118;-82
2021/10/04 08:24:20;;;;;;;8.15;2.90;;;;;;;12.05;100.00;101088.22;4943682;28;20702;-82
2021/10/04 08:26:46;;;;;;;9.85;3.05;;;;;;;12.06;100.00;101081.84;4935725;28;20143;-84
2021/10/04 08:29:12;;;;;;;5.70;2.53;;;;;;;12.09;100.00;101081.53;4939974;28;20051;-82
2021/10/04 08:31:38;;;;;;;10.30;2.88;;;;;;;12.11;100.00;101082.16;4936992;28;20789;-82
2021/10/04 08:34:05;;;;;;;10.07;3.00;;;;;;;12.16;100.00;101080.66;4928482;28;20051;-84
2021/10/04 08:36:32;;;;;;;8.30;2.80;;;;;;;12.15;99.97;101079.00;4935838;28;20056;-82
2021/10/04 08:38:57;;;;;;;6.32;2.88;;;;;;;12.21;99.98;101080.16;4940198;28;20107;-82
2021/10/04 08:41:23;;;;;;;8.63;3.72;;;;;;;12.25;99.79;101073.44;4937994;28;20055;-82
2021/10/04 08:43:53;;;;;;;7.32;2.75;;;;;;;12.29;99.26;101066.72;4938079;28;20059;-84
2021/10/04 08:46:19;;;;;;;6.00;2.92;;;;;;;12.35;99.43;101079.50;4942620;28;20051;-85
2021/10/04 08:48:49;;;;;;;7.15;2.83;;;;;;;12.41;99.24;101081.50;4936180;28;20080;-82
2021/10/04 08:51:14;;;;;;;;;;;;;;;12.46;98.95;101078.31;4935191;28;20644;-82
2021/10/04 08:53:41;;;;;;;5.70;3.38;;;;;;;12.44;99.08;101082.19;4941235;28;19969;-82
2021/10/04 08:56:07;;;;;;;7.05;3.28;;;;;;;12.46;98.81;101082.84;4944985;28;20038;-84
2021/10/04 08:58:33;;;;;;;8.40;3.50;;;;;;;12.52;98.70;101091.09;4944697;28;20106;-82
2021/10/04 09:00:59;;;;;;;15.73;2.92;;;;;;;12.54;98.09;101083.66;4943019;28;20051;-84
2021/10/04 09:03:25;;;;;;;6.40;2.78;;;;;;;12.57;97.55;101077.97;4943433;28;20047;-82
2021/10/04 09:05:57;;;;;;;9.70;3.35;;;;;;;12.63;97.83;101076.47;4944527;28;20067;-82
2021/10/04 09:08:23;;;;;;;7.60;2.72;;;;;;;12.64;97.05;101078.97;4936288;28;20083;-83
2021/10/04 09:10:55;;;;;;;7.32;2.78;;;;;;;12.71;96.99;101078.28;4937792;28;20063;-84
2021/10/04 09:13:21;;;;;;;7.63;3.03;;;;;;;12.76;97.09;101074.06;4934964;28;20051;-82
2021/10/04 09:15:48;;;;;;;10.45;2.85;;;;;;;12.83;97.45;101082.28;4935198;28;20054;-84
2021/10/04 09:18:30;;;;;;;5.45;2.67;;;;;;;12.85;96.66;101078.41;4932686;28;20045;-84
2021/10/04 09:20:59;;;;;;;7.75;3.20;;;;;;;12.88;96.30;101072.66;4936643;28;20426;-82
2021/10/04 09:23:44;;;;;;;7.15;2.90;;;;;;;12.92;95.75;101078.56;4935871;28;20151;-82
2021/10/04 09:26:25;;;;;;;7.88;3.22;;;;;;;12.98;96.31;101085.97;4933630;28;20177;-83
2021/10/04 09:29:08;;;;;;;8.27;2.72;;;;;;;12.98;95.16;101077.88;4940167;28;20039;-83
2021/10/04 09:31:36;;;;;;;6.65;3.00;;;;;;;13.00;95.28;101093.84;4924248;28;20106;-84
2021/10/04 09:34:04;;;;;;;7.10;2.72;;;;;;;12.99;95.36;101095.72;4945950;28;20114;-82
2021/10/04 09:36:32;;;;;;;6.93;2.83;;;;;;;13.02;95.24;101086.44;4949986;28;20106;-83
2021/10/04 09:39:16;;;;;;;7.10;3.15;;;;;;;12.99;95.58;101092.19;4940931;28;20082;-83
2021/10/04 09:42:03;;;;;;;8.93;2.70;;;;;;;12.99;95.13;101092.19;4925384;29;20047;-83
2021/10/04 09:44:43;;;;;;;7.82;2.90;;;;;;;12.99;94.78;101093.03;4944369;28;20462;-83
2021/10/04 09:47:11;;;;;;;7.00;2.75;;;;;;;13.08;94.85;101091.13;4932101;28;20090;-83
2021/10/04 09:49:51;;;;;;;8.07;3.00;;;;;;;13.14;94.49;101095.00;4936649;28;20078;-83
2021/10/04 09:52:16;;;;;;;7.65;2.92;;;;;;;13.22;94.33;101087.72;4934726;28;20507;-83
2021/10/04 09:54:47;;;;;;;6.35;2.70;;;;;;;13.38;94.84;101096.78;4935165;28;20059;-84
2021/10/04 09:57:20;;;;;;;11.55;2.58;;;;;;;13.48;92.12;101092.03;4934306;28;20059;-83
2021/10/04 09:59:46;;;;;;;9.30;2.50;;;;;;;13.54;92.78;101089.47;4936028;28;20636;-82
2021/10/04 10:02:13;;;;;;;8.00;2.20;;;;;;;13.53;92.16;101100.44;4936489;28;20062;-82
2021/10/04 10:04:41;;;;;;;4.97;2.33;;;;;;;13.53;91.93;101100.44;4938258;28;20059;-85
2021/10/04 10:07:07;;;;;;;6.47;2.30;;;;;;;13.57;92.20;101095.53;4936747;28;20058;-85
2021/10/04 10:09:35;;;;;;;5.40;2.40;;;;;;;13.69;92.11;101094.94;4941382;28;20266;-83
2021/10/04 10:12:01;;;;;;;7.63;2.20;;;;;;;13.75;89.21;101085.28;4932263;29;20047;-83
2021/10/04 10:14:26;;;;;;;6.93;2.03;;;;;;;13.81;88.92;101090.00;4936289;28;20154;-82
2021/10/04 10:16:54;;;;;;;8.02;2.08;;;;;;;13.91;89.31;101092.47;4937512;28;20181;-83
2021/10/04 10:19:23;;;;;;;5.65;1.85;;;;;;;14.07;88.99;101088.78;4934173;28;20067;-83
2021/10/04 10:22:10;;;;;;;5.25;1.63;;;;;;;14.21;87.83;101085.31;4919060;29;20051;-83
2021/10/04 10:24:35;;;;;;;7.35;1.70;;;;;;;14.32;86.39;101086.75;4943264;28;20054;-84
2021/10/04 10:27:03;;;;;;;8.18;1.60;;;;;;;14.42;86.79;101090.06;4939243;28;20403;-83
2021/10/04 10:29:30;;;;;;;4.05;1.60;;;;;;;14.50;85.49;101079.19;4935247;28;20062;-84
2021/10/04 10:31:55;;;;;;;4.05;1.42;;;;;;;14.59;84.29;101088.06;4937642;28;20043;-83
2021/10/04 10:34:23;;;;;;;4.30;1.52;;;;;;;14.72;84.24;101090.13;4935365;28;20077;-83
2021/10/04 10:37:16;;;;;;;5.32;1.60;;;;;;;14.76;83.50;101092.28;4935240;28;20043;-85
2021/10/04 10:39:51;;;;;;;6.18;1.65;;;;;;;14.88;82.78;101092.69;4924148;28;20075;-83
2021/10/04 10:42:31;;;;;;;4.28;1.00;;;;;;;14.89;81.53;101088.94;4941476;28;20047;-84
2021/10/04 10:44:57;;;;;;;5.70;1.10;;;;;;;14.88;80.33;101089.97;4921892;28;20553;-84
2021/10/04 10:47:38;;;;;;;5.80;1.15;;;;;;;14.98;81.44;101092.38;4937116;28;20036;-84
2021/10/04 10:50:27;;;;;;;6.63;1.60;;;;;;;15.01;79.85;101103.66;4937160;28;20059;-84
2021/10/04 10:52:55;;;;;;;5.20;1.45;;;;;;;15.03;79.41;101107.03;4937452;28;20059;-83
2021/10/04 10:55:20;;;;;;;6.63;1.17;;;;;;;15.06;79.00;101101.25;4933313;28;20085;-83
2021/10/04 10:57:48;;;;;;;3.83;1.00;;;;;;;15.03;78.93;101098.91;4934749;28;20114;-84
2021/10/04 11:00:14;;;;;;;8.70;0.90;;;;;;;15.01;78.94;101102.81;4936683;28;20083;-83
2021/10/04 11:02:52;;;;;;;5.32;1.08;;;;;;;15.02;78.99;101108.06;4941323;28;20093;-84
2021/10/04 11:05:39;;;;;;;6.07;0.70;;;;;;;14.98;77.90;101109.44;4957404;28;20047;-84
2021/10/04 11:08:11;;;;;;;2.60;0.90;;;;;;;14.95;78.20;101123.31;4934720;28;20148;-85
2021/10/04 11:10:49;;;;;;;6.05;1.42;;;;;;;15.02;79.78;101116.16;4920930;29;20668;-86
2021/10/04 11:13:35;;;;;;;3.95;1.30;;;;;;;15.14;79.15;101113.00;4943340;28;20059;-84
2021/10/04 11:16:23;;;;;;;6.00;0.90;;;;;;;15.24;78.02;101108.97;4941530;28;20047;-84
2021/10/04 11:18:50;;;;;;;6.78;1.10;;;;;;;15.29;75.88;101109.25;4939943;28;20513;-85